Flight Information

DEPARTURE
SANTA ANA, CA
Elevation:
55
Runways:
2L/20R - 5700x150 - ASPH-G
2R/20L - 2886x75 - ASPH-G
ATIS:
126 714-546-2279
Clearance Delivery:
118.0 121.85
Ground:
120.8 (East) 132.25 (West)
Tower:
119.9 (Rwy 2R-20L) 126.8 (Rwy 2L-20R)
DESTINATION
,
Elevation:
TPA:
1000 (est.)


6773.3 NM74° True-14° Var60° HDG

Flight Plan:
(click to file on line)

1. Type
2. Aircraft Identification
3. Aircraft Type / Special Equipment
4. True Airspeed
kts
5. Departure Airport
(ICAO code)
6. Arriving Airport
(ICAO code)
7. Cruising Altitude
ft
8. Alternate Airport
(ICAO code)
9. Route of Flight
10. Remarks


00:00:00 Departure ATIS: Destination ATIS:

Clearance Limit:
Route:
Altitude: Expect in minutes
Frequency:
Transponder: (7500 Hijack / 7600 Lost Comms / 7700 Emergency)


KSNA 261309Z 25003KT 1/2SM R20R/5500VP6000FT BR OVC002 16/14 A2996 RMK AO2 SFC VIS 3/4 T01610139
Time: 2022-06-26T13:09:00Z
1656251194
Winds: 250 @ 3 kts
Visibility: 0.5 sm
Clouds (AGL): OVC 200
Temperature: 16.1 C
Dew Point: 13.9 C
Pressure: 29.958662 in Hgbr


Notes:

Data extracted from FAA Digital Chart Supplement. Effective: 0901Z Thursday, 27 JAN 2022 to 0900z Thursday, 24 MAR 2022
Current ATIS data is provided courtisy of PilotEdge.